sensor_id;sensor_type;location;lat;lon;timestamp;P1;durP1;ratioP1;P2;durP2;ratioP2
6358;SDS011;3212;51.460;11.868;2024-02-21T00:00:49;7.47;;;3.47;;
6358;SDS011;3212;51.460;11.868;2024-02-21T00:04:11;9.43;;;3.20;;
6358;SDS011;3212;51.460;11.868;2024-02-21T00:07:33;8.53;;;3.13;;
6358;SDS011;3212;51.460;11.868;2024-02-21T00:10:56;11.33;;;3.73;;
6358;SDS011;3212;51.460;11.868;2024-02-21T00:14:18;6.70;;;2.40;;
6358;SDS011;3212;51.460;11.868;2024-02-21T00:17:41;8.33;;;2.80;;
6358;SDS011;3212;51.460;11.868;2024-02-21T00:21:05;9.43;;;2.93;;
6358;SDS011;3212;51.460;11.868;2024-02-21T00:24:27;7.63;;;2.93;;
6358;SDS011;3212;51.460;11.868;2024-02-21T00:27:49;8.23;;;2.70;;
6358;SDS011;3212;51.460;11.868;2024-02-21T00:31:12;13.97;;;3.20;;
6358;SDS011;3212;51.460;11.868;2024-02-21T00:34:34;7.90;;;2.97;;
6358;SDS011;3212;51.460;11.868;2024-02-21T00:37:57;7.70;;;3.23;;
6358;SDS011;3212;51.460;11.868;2024-02-21T00:41:20;7.00;;;2.87;;
6358;SDS011;3212;51.460;11.868;2024-02-21T00:44:42;9.53;;;2.90;;
6358;SDS011;3212;51.460;11.868;2024-02-21T00:48:05;7.77;;;3.10;;
6358;SDS011;3212;51.460;11.868;2024-02-21T00:51:27;6.65;;;3.05;;
6358;SDS011;3212;51.460;11.868;2024-02-21T00:54:49;8.83;;;3.10;;
6358;SDS011;3212;51.460;11.868;2024-02-21T00:58:12;7.80;;;3.30;;
6358;SDS011;3212;51.460;11.868;2024-02-21T01:01:34;11.60;;;3.35;;
6358;SDS011;3212;51.460;11.868;2024-02-21T01:04:57;6.00;;;2.80;;
6358;SDS011;3212;51.460;11.868;2024-02-21T01:08:19;11.27;;;3.13;;
6358;SDS011;3212;51.460;11.868;2024-02-21T01:11:42;12.80;;;3.23;;
6358;SDS011;3212;51.460;11.868;2024-02-21T01:15:04;10.60;;;3.43;;
6358;SDS011;3212;51.460;11.868;2024-02-21T01:18:27;11.90;;;3.60;;
6358;SDS011;3212;51.460;11.868;2024-02-21T01:21:49;13.20;;;3.10;;
6358;SDS011;3212;51.460;11.868;2024-02-21T01:25:11;15.63;;;3.70;;
6358;SDS011;3212;51.460;11.868;2024-02-21T01:28:34;7.55;;;3.10;;
6358;SDS011;3212;51.460;11.868;2024-02-21T01:31:56;12.30;;;3.60;;
6358;SDS011;3212;51.460;11.868;2024-02-21T01:35:19;7.10;;;3.27;;
6358;SDS011;3212;51.460;11.868;2024-02-21T01:38:43;17.73;;;3.50;;
6358;SDS011;3212;51.460;11.868;2024-02-21T01:42:05;8.43;;;3.53;;
6358;SDS011;3212;51.460;11.868;2024-02-21T01:45:29;9.17;;;3.07;;
6358;SDS011;3212;51.460;11.868;2024-02-21T01:48:51;7.50;;;3.17;;
6358;SDS011;3212;51.460;11.868;2024-02-21T01:52:15;13.60;;;3.10;;
6358;SDS011;3212;51.460;11.868;2024-02-21T01:55:37;10.70;;;3.57;;
6358;SDS011;3212;51.460;11.868;2024-02-21T01:58:59;9.97;;;3.40;;
6358;SDS011;3212;51.460;11.868;2024-02-21T02:02:22;6.20;;;2.80;;
6358;SDS011;3212;51.460;11.868;2024-02-21T02:05:50;7.20;;;3.40;;
6358;SDS011;3212;51.460;11.868;2024-02-21T02:09:13;18.03;;;3.63;;
6358;SDS011;3212;51.460;11.868;2024-02-21T02:12:35;7.90;;;3.23;;
6358;SDS011;3212;51.460;11.868;2024-02-21T02:15:57;11.37;;;3.30;;
6358;SDS011;3212;51.460;11.868;2024-02-21T02:19:27;8.10;;;3.03;;
6358;SDS011;3212;51.460;11.868;2024-02-21T02:22:50;13.77;;;3.70;;
6358;SDS011;3212;51.460;11.868;2024-02-21T02:26:12;9.23;;;3.40;;
6358;SDS011;3212;51.460;11.868;2024-02-21T02:29:35;8.53;;;3.10;;
6358;SDS011;3212;51.460;11.868;2024-02-21T02:32:57;9.13;;;3.23;;
6358;SDS011;3212;51.460;11.868;2024-02-21T02:36:20;7.23;;;2.93;;
6358;SDS011;3212;51.460;11.868;2024-02-21T02:39:42;10.27;;;3.70;;
6358;SDS011;3212;51.460;11.868;2024-02-21T02:43:05;5.87;;;2.70;;
6358;SDS011;3212;51.460;11.868;2024-02-21T02:46:27;6.10;;;2.90;;
6358;SDS011;3212;51.460;11.868;2024-02-21T02:49:49;8.97;;;3.00;;
6358;SDS011;3212;51.460;11.868;2024-02-21T02:53:12;8.40;;;3.40;;
6358;SDS011;3212;51.460;11.868;2024-02-21T02:56:34;8.43;;;3.20;;
6358;SDS011;3212;51.460;11.868;2024-02-21T02:59:57;9.47;;;3.20;;
6358;SDS011;3212;51.460;11.868;2024-02-21T03:03:19;12.77;;;3.10;;
6358;SDS011;3212;51.460;11.868;2024-02-21T03:06:42;15.07;;;4.40;;
6358;SDS011;3212;51.460;11.868;2024-02-21T03:10:04;8.30;;;2.90;;
6358;SDS011;3212;51.460;11.868;2024-02-21T03:13:27;6.97;;;3.10;;
6358;SDS011;3212;51.460;11.868;2024-02-21T03:16:51;8.87;;;3.50;;
6358;SDS011;3212;51.460;11.868;2024-02-21T03:20:12;5.17;;;2.50;;
6358;SDS011;3212;51.460;11.868;2024-02-21T03:23:34;6.53;;;2.80;;
6358;SDS011;3212;51.460;11.868;2024-02-21T03:26:56;8.33;;;2.97;;
6358;SDS011;3212;51.460;11.868;2024-02-21T03:30:19;9.87;;;3.10;;
6358;SDS011;3212;51.460;11.868;2024-02-21T03:33:42;10.17;;;3.80;;
6358;SDS011;3212;51.460;11.868;2024-02-21T03:37:03;9.07;;;3.80;;
6358;SDS011;3212;51.460;11.868;2024-02-21T03:40:26;8.93;;;3.47;;
6358;SDS011;3212;51.460;11.868;2024-02-21T03:43:48;6.93;;;3.33;;
6358;SDS011;3212;51.460;11.868;2024-02-21T03:47:11;10.57;;;3.57;;
6358;SDS011;3212;51.460;11.868;2024-02-21T03:50:33;8.75;;;3.30;;
6358;SDS011;3212;51.460;11.868;2024-02-21T03:53:56;11.00;;;3.73;;
6358;SDS011;3212;51.460;11.868;2024-02-21T03:57:18;10.97;;;3.60;;
6358;SDS011;3212;51.460;11.868;2024-02-21T04:00:40;7.03;;;2.87;;
6358;SDS011;3212;51.460;11.868;2024-02-21T04:04:03;7.17;;;3.13;;
6358;SDS011;3212;51.460;11.868;2024-02-21T04:07:26;9.80;;;3.37;;
6358;SDS011;3212;51.460;11.868;2024-02-21T04:10:48;12.13;;;3.70;;
6358;SDS011;3212;51.460;11.868;2024-02-21T04:14:11;8.90;;;3.40;;
6358;SDS011;3212;51.460;11.868;2024-02-21T04:17:33;9.70;;;3.50;;
6358;SDS011;3212;51.460;11.868;2024-02-21T04:20:56;13.53;;;3.80;;
6358;SDS011;3212;51.460;11.868;2024-02-21T04:24:18;9.77;;;3.60;;
6358;SDS011;3212;51.460;11.868;2024-02-21T04:27:40;10.23;;;3.33;;
6358;SDS011;3212;51.460;11.868;2024-02-21T04:31:03;10.13;;;4.20;;
6358;SDS011;3212;51.460;11.868;2024-02-21T04:34:25;8.80;;;3.83;;
6358;SDS011;3212;51.460;11.868;2024-02-21T04:37:48;11.03;;;4.27;;
6358;SDS011;3212;51.460;11.868;2024-02-21T04:41:10;7.30;;;3.67;;
6358;SDS011;3212;51.460;11.868;2024-02-21T04:44:32;9.80;;;4.00;;
6358;SDS011;3212;51.460;11.868;2024-02-21T04:47:55;9.33;;;3.97;;
6358;SDS011;3212;51.460;11.868;2024-02-21T04:51:17;9.38;;;3.67;;
6358;SDS011;3212;51.460;11.868;2024-02-21T04:54:41;14.20;;;5.00;;
6358;SDS011;3212;51.460;11.868;2024-02-21T04:58:03;11.13;;;4.80;;
6358;SDS011;3212;51.460;11.868;2024-02-21T05:01:25;10.60;;;4.30;;
6358;SDS011;3212;51.460;11.868;2024-02-21T05:04:48;11.27;;;5.00;;
6358;SDS011;3212;51.460;11.868;2024-02-21T05:08:10;12.90;;;4.60;;
6358;SDS011;3212;51.460;11.868;2024-02-21T05:11:33;9.80;;;5.00;;
6358;SDS011;3212;51.460;11.868;2024-02-21T05:14:55;13.07;;;4.20;;
6358;SDS011;3212;51.460;11.868;2024-02-21T05:18:18;21.30;;;4.80;;
6358;SDS011;3212;51.460;11.868;2024-02-21T05:21:40;14.37;;;5.47;;
6358;SDS011;3212;51.460;11.868;2024-02-21T05:25:03;10.35;;;5.12;;
6358;SDS011;3212;51.460;11.868;2024-02-21T05:28:25;12.23;;;5.23;;
6358;SDS011;3212;51.460;11.868;2024-02-21T05:31:54;10.03;;;4.63;;
6358;SDS011;3212;51.460;11.868;2024-02-21T05:35:16;15.17;;;5.03;;
6358;SDS011;3212;51.460;11.868;2024-02-21T05:38:38;16.60;;;5.47;;
6358;SDS011;3212;51.460;11.868;2024-02-21T05:42:01;11.50;;;4.83;;
6358;SDS011;3212;51.460;11.868;2024-02-21T05:45:23;17.37;;;4.73;;
6358;SDS011;3212;51.460;11.868;2024-02-21T05:48:46;16.02;;;5.65;;
6358;SDS011;3212;51.460;11.868;2024-02-21T05:52:08;13.07;;;5.43;;
6358;SDS011;3212;51.460;11.868;2024-02-21T05:55:30;13.43;;;5.20;;
6358;SDS011;3212;51.460;11.868;2024-02-21T05:58:53;11.83;;;5.03;;
6358;SDS011;3212;51.460;11.868;2024-02-21T06:02:15;13.67;;;5.70;;
6358;SDS011;3212;51.460;11.868;2024-02-21T06:05:38;12.40;;;6.07;;
6358;SDS011;3212;51.460;11.868;2024-02-21T06:09:01;14.27;;;5.67;;
6358;SDS011;3212;51.460;11.868;2024-02-21T06:12:24;14.43;;;5.60;;
6358;SDS011;3212;51.460;11.868;2024-02-21T06:15:46;11.10;;;5.30;;
6358;SDS011;3212;51.460;11.868;2024-02-21T06:19:08;15.30;;;5.82;;
6358;SDS011;3212;51.460;11.868;2024-02-21T06:22:31;13.40;;;5.17;;
6358;SDS011;3212;51.460;11.868;2024-02-21T06:25:54;10.40;;;5.07;;
6358;SDS011;3212;51.460;11.868;2024-02-21T06:29:17;14.63;;;5.23;;
6358;SDS011;3212;51.460;11.868;2024-02-21T06:32:39;13.40;;;5.55;;
6358;SDS011;3212;51.460;11.868;2024-02-21T06:36:02;18.07;;;5.50;;
6358;SDS011;3212;51.460;11.868;2024-02-21T06:39:25;16.03;;;5.63;;
6358;SDS011;3212;51.460;11.868;2024-02-21T06:42:48;10.03;;;5.27;;
6358;SDS011;3212;51.460;11.868;2024-02-21T06:46:10;15.80;;;5.27;;
6358;SDS011;3212;51.460;11.868;2024-02-21T06:49:37;13.00;;;5.20;;
6358;SDS011;3212;51.460;11.868;2024-02-21T06:53:00;13.53;;;4.97;;
6358;SDS011;3212;51.460;11.868;2024-02-21T06:56:23;12.40;;;5.30;;
6358;SDS011;3212;51.460;11.868;2024-02-21T06:59:48;10.67;;;4.37;;
6358;SDS011;3212;51.460;11.868;2024-02-21T07:03:10;12.23;;;4.90;;
6358;SDS011;3212;51.460;11.868;2024-02-21T07:06:33;11.17;;;4.50;;
6358;SDS011;3212;51.460;11.868;2024-02-21T07:09:55;15.43;;;5.37;;
6358;SDS011;3212;51.460;11.868;2024-02-21T07:13:22;8.00;;;4.57;;
6358;SDS011;3212;51.460;11.868;2024-02-21T07:16:45;13.13;;;4.83;;
6358;SDS011;3212;51.460;11.868;2024-02-21T07:20:07;9.83;;;4.63;;
6358;SDS011;3212;51.460;11.868;2024-02-21T07:23:30;9.83;;;4.10;;
6358;SDS011;3212;51.460;11.868;2024-02-21T07:26:52;10.87;;;4.90;;
6358;SDS011;3212;51.460;11.868;2024-02-21T07:30:15;16.17;;;5.00;;
6358;SDS011;3212;51.460;11.868;2024-02-21T07:33:37;11.30;;;4.67;;
6358;SDS011;3212;51.460;11.868;2024-02-21T07:37:00;11.63;;;4.60;;
6358;SDS011;3212;51.460;11.868;2024-02-21T07:40:22;8.03;;;4.53;;
6358;SDS011;3212;51.460;11.868;2024-02-21T07:43:44;12.07;;;5.07;;
6358;SDS011;3212;51.460;11.868;2024-02-21T07:47:08;13.07;;;5.30;;
6358;SDS011;3212;51.460;11.868;2024-02-21T07:50:30;13.10;;;5.10;;
6358;SDS011;3212;51.460;11.868;2024-02-21T07:53:53;10.30;;;4.53;;
6358;SDS011;3212;51.460;11.868;2024-02-21T07:57:15;8.67;;;4.63;;
6358;SDS011;3212;51.460;11.868;2024-02-21T08:00:37;12.33;;;4.50;;
6358;SDS011;3212;51.460;11.868;2024-02-21T08:04:00;9.27;;;4.50;;
6358;SDS011;3212;51.460;11.868;2024-02-21T08:07:23;9.73;;;5.20;;
6358;SDS011;3212;51.460;11.868;2024-02-21T08:10:45;14.10;;;5.80;;
6358;SDS011;3212;51.460;11.868;2024-02-21T08:14:08;19.83;;;5.90;;
6358;SDS011;3212;51.460;11.868;2024-02-21T08:17:30;10.67;;;5.17;;
6358;SDS011;3212;51.460;11.868;2024-02-21T08:20:53;15.90;;;5.20;;
6358;SDS011;3212;51.460;11.868;2024-02-21T08:24:15;12.67;;;4.60;;
6358;SDS011;3212;51.460;11.868;2024-02-21T08:27:37;10.17;;;4.70;;
6358;SDS011;3212;51.460;11.868;2024-02-21T08:31:01;11.07;;;5.17;;
6358;SDS011;3212;51.460;11.868;2024-02-21T08:34:23;9.20;;;4.33;;
6358;SDS011;3212;51.460;11.868;2024-02-21T08:37:46;15.30;;;4.60;;
6358;SDS011;3212;51.460;11.868;2024-02-21T08:41:08;16.27;;;4.80;;
6358;SDS011;3212;51.460;11.868;2024-02-21T08:44:30;13.73;;;4.57;;
6358;SDS011;3212;51.460;11.868;2024-02-21T08:47:53;8.23;;;4.33;;
6358;SDS011;3212;51.460;11.868;2024-02-21T08:51:15;12.40;;;4.20;;
6358;SDS011;3212;51.460;11.868;2024-02-21T08:54:38;5.77;;;3.50;;
6358;SDS011;3212;51.460;11.868;2024-02-21T08:58:00;7.80;;;3.70;;
6358;SDS011;3212;51.460;11.868;2024-02-21T09:01:23;9.13;;;3.90;;
6358;SDS011;3212;51.460;11.868;2024-02-21T09:04:45;11.40;;;4.23;;
6358;SDS011;3212;51.460;11.868;2024-02-21T09:08:07;6.23;;;4.00;;
6358;SDS011;3212;51.460;11.868;2024-02-21T09:11:30;11.20;;;4.20;;
6358;SDS011;3212;51.460;11.868;2024-02-21T09:14:52;11.17;;;4.90;;
6358;SDS011;3212;51.460;11.868;2024-02-21T09:18:15;7.13;;;3.90;;
6358;SDS011;3212;51.460;11.868;2024-02-21T09:21:37;14.10;;;4.23;;
6358;SDS011;3212;51.460;11.868;2024-02-21T09:25:00;6.60;;;3.85;;
6358;SDS011;3212;51.460;11.868;2024-02-21T09:28:22;9.23;;;4.30;;
6358;SDS011;3212;51.460;11.868;2024-02-21T09:31:44;10.07;;;4.10;;
6358;SDS011;3212;51.460;11.868;2024-02-21T09:35:07;9.43;;;4.27;;
6358;SDS011;3212;51.460;11.868;2024-02-21T09:38:30;9.70;;;3.90;;
6358;SDS011;3212;51.460;11.868;2024-02-21T09:41:54;8.67;;;4.53;;
6358;SDS011;3212;51.460;11.868;2024-02-21T09:45:20;11.70;;;3.53;;
6358;SDS011;3212;51.460;11.868;2024-02-21T09:48:49;9.55;;;3.80;;
6358;SDS011;3212;51.460;11.868;2024-02-21T09:52:13;6.87;;;3.27;;
6358;SDS011;3212;51.460;11.868;2024-02-21T09:55:36;8.03;;;3.20;;
6358;SDS011;3212;51.460;11.868;2024-02-21T09:58:59;7.90;;;3.63;;
6358;SDS011;3212;51.460;11.868;2024-02-21T10:02:21;9.90;;;3.90;;
6358;SDS011;3212;51.460;11.868;2024-02-21T10:05:47;9.03;;;4.03;;
6358;SDS011;3212;51.460;11.868;2024-02-21T10:09:07;8.03;;;3.70;;
6358;SDS011;3212;51.460;11.868;2024-02-21T10:12:29;6.53;;;3.73;;
6358;SDS011;3212;51.460;11.868;2024-02-21T10:19:22;7.50;;;3.27;;
6358;SDS011;3212;51.460;11.868;2024-02-21T10:22:44;6.83;;;3.60;;
6358;SDS011;3212;51.460;11.868;2024-02-21T10:26:07;7.73;;;3.50;;
6358;SDS011;3212;51.460;11.868;2024-02-21T10:29:30;12.70;;;3.93;;
6358;SDS011;3212;51.460;11.868;2024-02-21T10:32:53;8.20;;;3.40;;
6358;SDS011;3212;51.460;11.868;2024-02-21T10:36:15;8.87;;;4.60;;
6358;SDS011;3212;51.460;11.868;2024-02-21T10:39:39;4.97;;;3.27;;
6358;SDS011;3212;51.460;11.868;2024-02-21T10:43:00;8.73;;;3.57;;
6358;SDS011;3212;51.460;11.868;2024-02-21T10:46:23;8.30;;;3.80;;
6358;SDS011;3212;51.460;11.868;2024-02-21T10:49:45;5.80;;;3.50;;
6358;SDS011;3212;51.460;11.868;2024-02-21T10:53:11;9.03;;;3.80;;
6358;SDS011;3212;51.460;11.868;2024-02-21T10:56:41;11.20;;;3.23;;
6358;SDS011;3212;51.460;11.868;2024-02-21T11:00:05;11.20;;;3.10;;
6358;SDS011;3212;51.460;11.868;2024-02-21T11:03:29;5.82;;;2.50;;
6358;SDS011;3212;51.460;11.868;2024-02-21T11:06:52;5.80;;;2.80;;
6358;SDS011;3212;51.460;11.868;2024-02-21T11:10:20;5.47;;;2.07;;
6358;SDS011;3212;51.460;11.868;2024-02-21T11:13:43;4.63;;;2.00;;
6358;SDS011;3212;51.460;11.868;2024-02-21T11:20:38;3.60;;;2.20;;
6358;SDS011;3212;51.460;11.868;2024-02-21T11:24:00;3.23;;;1.90;;
6358;SDS011;3212;51.460;11.868;2024-02-21T11:27:22;6.13;;;2.73;;
6358;SDS011;3212;51.460;11.868;2024-02-21T11:30:47;6.50;;;3.03;;
6358;SDS011;3212;51.460;11.868;2024-02-21T11:34:10;6.90;;;2.70;;
6358;SDS011;3212;51.460;11.868;2024-02-21T11:37:34;4.07;;;2.70;;
6358;SDS011;3212;51.460;11.868;2024-02-21T11:40:56;5.97;;;2.53;;
6358;SDS011;3212;51.460;11.868;2024-02-21T11:44:19;3.43;;;2.50;;
6358;SDS011;3212;51.460;11.868;2024-02-21T11:47:42;7.63;;;3.27;;
6358;SDS011;3212;51.460;11.868;2024-02-21T11:51:03;6.23;;;3.57;;
6358;SDS011;3212;51.460;11.868;2024-02-21T11:54:26;5.63;;;3.53;;
6358;SDS011;3212;51.460;11.868;2024-02-21T11:57:48;5.73;;;3.67;;
6358;SDS011;3212;51.460;11.868;2024-02-21T12:01:11;11.43;;;4.23;;
6358;SDS011;3212;51.460;11.868;2024-02-21T12:04:35;5.63;;;2.90;;
6358;SDS011;3212;51.460;11.868;2024-02-21T12:07:57;9.43;;;3.83;;
6358;SDS011;3212;51.460;11.868;2024-02-21T12:11:20;6.73;;;3.00;;
6358;SDS011;3212;51.460;11.868;2024-02-21T12:14:43;5.90;;;3.30;;
6358;SDS011;3212;51.460;11.868;2024-02-21T12:18:05;4.37;;;3.33;;
6358;SDS011;3212;51.460;11.868;2024-02-21T12:21:31;8.33;;;3.63;;
6358;SDS011;3212;51.460;11.868;2024-02-21T12:24:52;8.60;;;4.27;;
6358;SDS011;3212;51.460;11.868;2024-02-21T12:28:15;8.83;;;4.10;;
6358;SDS011;3212;51.460;11.868;2024-02-21T12:31:38;6.77;;;3.60;;
6358;SDS011;3212;51.460;11.868;2024-02-21T12:35:00;7.03;;;4.13;;
6358;SDS011;3212;51.460;11.868;2024-02-21T12:38:22;7.60;;;3.93;;
6358;SDS011;3212;51.460;11.868;2024-02-21T12:41:45;6.00;;;3.67;;
6358;SDS011;3212;51.460;11.868;2024-02-21T12:45:07;7.17;;;3.70;;
6358;SDS011;3212;51.460;11.868;2024-02-21T12:48:30;5.73;;;3.17;;
6358;SDS011;3212;51.460;11.868;2024-02-21T12:51:52;7.43;;;3.93;;
6358;SDS011;3212;51.460;11.868;2024-02-21T12:55:15;7.77;;;4.23;;
6358;SDS011;3212;51.460;11.868;2024-02-21T12:58:37;8.17;;;3.60;;
6358;SDS011;3212;51.460;11.868;2024-02-21T13:01:59;10.40;;;4.30;;
6358;SDS011;3212;51.460;11.868;2024-02-21T13:05:22;7.20;;;3.50;;
6358;SDS011;3212;51.460;11.868;2024-02-21T13:08:44;8.33;;;4.50;;
6358;SDS011;3212;51.460;11.868;2024-02-21T13:12:07;7.17;;;4.50;;
6358;SDS011;3212;51.460;11.868;2024-02-21T13:15:29;7.00;;;3.90;;
6358;SDS011;3212;51.460;11.868;2024-02-21T13:18:52;9.40;;;4.10;;
6358;SDS011;3212;51.460;11.868;2024-02-21T13:22:14;10.40;;;4.00;;
6358;SDS011;3212;51.460;11.868;2024-02-21T13:25:37;6.70;;;4.60;;
6358;SDS011;3212;51.460;11.868;2024-02-21T13:29:00;7.60;;;4.63;;
6358;SDS011;3212;51.460;11.868;2024-02-21T13:32:22;6.23;;;3.70;;
6358;SDS011;3212;51.460;11.868;2024-02-21T13:35:44;9.20;;;4.33;;
6358;SDS011;3212;51.460;11.868;2024-02-21T13:39:07;8.40;;;3.87;;
6358;SDS011;3212;51.460;11.868;2024-02-21T13:42:29;8.50;;;4.27;;
6358;SDS011;3212;51.460;11.868;2024-02-21T13:45:56;6.60;;;3.67;;
6358;SDS011;3212;51.460;11.868;2024-02-21T13:49:18;9.03;;;3.80;;
6358;SDS011;3212;51.460;11.868;2024-02-21T13:52:41;7.73;;;4.03;;
6358;SDS011;3212;51.460;11.868;2024-02-21T13:56:03;5.13;;;4.10;;
6358;SDS011;3212;51.460;11.868;2024-02-21T13:59:25;6.10;;;3.30;;
6358;SDS011;3212;51.460;11.868;2024-02-21T14:02:48;8.80;;;3.70;;
6358;SDS011;3212;51.460;11.868;2024-02-21T14:06:10;6.03;;;4.10;;
6358;SDS011;3212;51.460;11.868;2024-02-21T14:09:33;6.13;;;3.60;;
6358;SDS011;3212;51.460;11.868;2024-02-21T14:12:55;9.43;;;3.67;;
6358;SDS011;3212;51.460;11.868;2024-02-21T14:16:17;6.47;;;3.83;;
6358;SDS011;3212;51.460;11.868;2024-02-21T14:19:40;8.67;;;3.80;;
6358;SDS011;3212;51.460;11.868;2024-02-21T14:23:02;5.70;;;3.60;;
6358;SDS011;3212;51.460;11.868;2024-02-21T14:26:25;9.47;;;4.00;;
6358;SDS011;3212;51.460;11.868;2024-02-21T14:29:47;9.37;;;4.23;;
6358;SDS011;3212;51.460;11.868;2024-02-21T14:33:10;8.17;;;3.77;;
6358;SDS011;3212;51.460;11.868;2024-02-21T14:36:32;12.00;;;4.27;;
6358;SDS011;3212;51.460;11.868;2024-02-21T14:39:54;8.07;;;3.97;;
6358;SDS011;3212;51.460;11.868;2024-02-21T14:43:17;6.17;;;4.20;;
6358;SDS011;3212;51.460;11.868;2024-02-21T14:46:39;9.33;;;4.57;;
6358;SDS011;3212;51.460;11.868;2024-02-21T14:50:02;10.90;;;4.23;;
6358;SDS011;3212;51.460;11.868;2024-02-21T14:53:24;7.30;;;4.23;;
6358;SDS011;3212;51.460;11.868;2024-02-21T14:56:46;9.37;;;3.47;;
6358;SDS011;3212;51.460;11.868;2024-02-21T15:00:09;11.60;;;3.93;;
6358;SDS011;3212;51.460;11.868;2024-02-21T15:03:31;5.90;;;3.80;;
6358;SDS011;3212;51.460;11.868;2024-02-21T15:06:54;7.93;;;4.20;;
6358;SDS011;3212;51.460;11.868;2024-02-21T15:10:17;12.03;;;3.80;;
6358;SDS011;3212;51.460;11.868;2024-02-21T15:13:40;7.00;;;3.97;;
6358;SDS011;3212;51.460;11.868;2024-02-21T15:17:03;7.10;;;3.67;;
6358;SDS011;3212;51.460;11.868;2024-02-21T15:20:25;8.27;;;4.10;;
6358;SDS011;3212;51.460;11.868;2024-02-21T15:23:48;6.47;;;3.63;;
6358;SDS011;3212;51.460;11.868;2024-02-21T15:27:11;6.20;;;4.30;;
6358;SDS011;3212;51.460;11.868;2024-02-21T15:30:33;15.70;;;6.70;;
6358;SDS011;3212;51.460;11.868;2024-02-21T15:33:55;5.53;;;3.77;;
6358;SDS011;3212;51.460;11.868;2024-02-21T15:37:18;10.30;;;4.37;;
6358;SDS011;3212;51.460;11.868;2024-02-21T15:40:41;5.70;;;3.80;;
6358;SDS011;3212;51.460;11.868;2024-02-21T15:44:03;9.87;;;5.97;;
6358;SDS011;3212;51.460;11.868;2024-02-21T15:47:27;7.30;;;4.00;;
6358;SDS011;3212;51.460;11.868;2024-02-21T15:50:49;5.53;;;3.37;;
6358;SDS011;3212;51.460;11.868;2024-02-21T15:54:11;8.07;;;4.13;;
6358;SDS011;3212;51.460;11.868;2024-02-21T15:57:34;8.43;;;3.90;;
6358;SDS011;3212;51.460;11.868;2024-02-21T16:00:56;5.10;;;3.10;;
6358;SDS011;3212;51.460;11.868;2024-02-21T16:04:19;8.80;;;3.57;;
6358;SDS011;3212;51.460;11.868;2024-02-21T16:07:41;8.00;;;3.53;;
6358;SDS011;3212;51.460;11.868;2024-02-21T16:11:04;7.20;;;3.63;;
6358;SDS011;3212;51.460;11.868;2024-02-21T16:14:26;5.47;;;3.50;;
6358;SDS011;3212;51.460;11.868;2024-02-21T16:17:49;8.00;;;3.97;;
6358;SDS011;3212;51.460;11.868;2024-02-21T16:21:11;6.03;;;3.73;;
6358;SDS011;3212;51.460;11.868;2024-02-21T16:24:34;10.77;;;4.03;;
6358;SDS011;3212;51.460;11.868;2024-02-21T16:27:56;11.93;;;4.13;;
6358;SDS011;3212;51.460;11.868;2024-02-21T16:31:19;7.50;;;3.63;;
6358;SDS011;3212;51.460;11.868;2024-02-21T16:34:42;4.50;;;3.73;;
6358;SDS011;3212;51.460;11.868;2024-02-21T16:38:05;6.07;;;4.10;;
6358;SDS011;3212;51.460;11.868;2024-02-21T16:41:27;8.47;;;4.40;;
6358;SDS011;3212;51.460;11.868;2024-02-21T16:44:50;5.82;;;3.67;;
6358;SDS011;3212;51.460;11.868;2024-02-21T16:48:13;4.83;;;3.90;;
6358;SDS011;3212;51.460;11.868;2024-02-21T16:51:35;3.77;;;2.53;;
6358;SDS011;3212;51.460;11.868;2024-02-21T16:54:57;6.40;;;2.60;;
6358;SDS011;3212;51.460;11.868;2024-02-21T16:58:20;6.10;;;2.83;;
6358;SDS011;3212;51.460;11.868;2024-02-21T17:01:42;3.63;;;3.10;;
6358;SDS011;3212;51.460;11.868;2024-02-21T17:05:05;5.77;;;2.93;;
6358;SDS011;3212;51.460;11.868;2024-02-21T17:08:28;4.40;;;2.67;;
6358;SDS011;3212;51.460;11.868;2024-02-21T17:11:50;3.70;;;2.53;;
6358;SDS011;3212;51.460;11.868;2024-02-21T17:15:13;5.43;;;2.60;;
6358;SDS011;3212;51.460;11.868;2024-02-21T17:18:36;6.20;;;3.00;;
6358;SDS011;3212;51.460;11.868;2024-02-21T17:21:58;13.43;;;3.03;;
6358;SDS011;3212;51.460;11.868;2024-02-21T17:25:21;4.17;;;2.43;;
6358;SDS011;3212;51.460;11.868;2024-02-21T17:28:43;3.87;;;2.40;;
6358;SDS011;3212;51.460;11.868;2024-02-21T17:32:05;4.20;;;2.63;;
6358;SDS011;3212;51.460;11.868;2024-02-21T17:35:29;6.00;;;2.53;;
6358;SDS011;3212;51.460;11.868;2024-02-21T17:38:51;4.27;;;2.60;;
6358;SDS011;3212;51.460;11.868;2024-02-21T17:42:14;4.53;;;2.40;;
6358;SDS011;3212;51.460;11.868;2024-02-21T17:45:36;8.27;;;2.80;;
6358;SDS011;3212;51.460;11.868;2024-02-21T17:48:58;4.47;;;2.60;;
6358;SDS011;3212;51.460;11.868;2024-02-21T17:52:21;4.10;;;2.13;;
6358;SDS011;3212;51.460;11.868;2024-02-21T17:55:43;6.80;;;2.60;;
6358;SDS011;3212;51.460;11.868;2024-02-21T17:59:06;3.10;;;2.47;;
6358;SDS011;3212;51.460;11.868;2024-02-21T18:02:28;5.27;;;2.40;;
6358;SDS011;3212;51.460;11.868;2024-02-21T18:05:51;3.60;;;2.40;;
6358;SDS011;3212;51.460;11.868;2024-02-21T18:09:13;5.57;;;2.53;;
6358;SDS011;3212;51.460;11.868;2024-02-21T18:12:36;3.97;;;2.72;;
6358;SDS011;3212;51.460;11.868;2024-02-21T18:16:01;5.80;;;3.37;;
6358;SDS011;3212;51.460;11.868;2024-02-21T18:19:21;4.30;;;2.70;;
6358;SDS011;3212;51.460;11.868;2024-02-21T18:22:44;4.77;;;3.10;;
6358;SDS011;3212;51.460;11.868;2024-02-21T18:26:06;4.20;;;2.60;;
6358;SDS011;3212;51.460;11.868;2024-02-21T18:29:29;7.30;;;3.33;;
6358;SDS011;3212;51.460;11.868;2024-02-21T18:32:52;4.20;;;2.90;;
6358;SDS011;3212;51.460;11.868;2024-02-21T18:36:14;8.60;;;3.13;;
6358;SDS011;3212;51.460;11.868;2024-02-21T18:39:37;4.87;;;2.83;;
6358;SDS011;3212;51.460;11.868;2024-02-21T18:42:59;4.53;;;2.70;;
6358;SDS011;3212;51.460;11.868;2024-02-21T18:46:21;7.03;;;2.50;;
6358;SDS011;3212;51.460;11.868;2024-02-21T18:49:44;6.17;;;2.80;;
6358;SDS011;3212;51.460;11.868;2024-02-21T18:53:06;3.50;;;2.70;;
6358;SDS011;3212;51.460;11.868;2024-02-21T18:56:29;3.60;;;2.53;;
6358;SDS011;3212;51.460;11.868;2024-02-21T18:59:51;7.50;;;2.57;;
6358;SDS011;3212;51.460;11.868;2024-02-21T19:03:13;5.50;;;2.47;;
6358;SDS011;3212;51.460;11.868;2024-02-21T19:06:36;4.93;;;2.67;;
6358;SDS011;3212;51.460;11.868;2024-02-21T19:09:58;4.33;;;2.63;;
6358;SDS011;3212;51.460;11.868;2024-02-21T19:13:21;5.10;;;2.73;;
6358;SDS011;3212;51.460;11.868;2024-02-21T19:16:43;8.83;;;2.83;;
6358;SDS011;3212;51.460;11.868;2024-02-21T19:20:05;2.60;;;2.23;;
6358;SDS011;3212;51.460;11.868;2024-02-21T19:23:29;6.23;;;2.57;;
6358;SDS011;3212;51.460;11.868;2024-02-21T19:26:52;5.68;;;2.62;;
6358;SDS011;3212;51.460;11.868;2024-02-21T19:30:15;8.73;;;2.57;;
6358;SDS011;3212;51.460;11.868;2024-02-21T19:33:37;4.22;;;2.90;;
6358;SDS011;3212;51.460;11.868;2024-02-21T19:37:00;4.97;;;2.93;;
6358;SDS011;3212;51.460;11.868;2024-02-21T19:40:22;3.80;;;2.57;;
6358;SDS011;3212;51.460;11.868;2024-02-21T19:43:45;5.13;;;2.50;;
6358;SDS011;3212;51.460;11.868;2024-02-21T19:47:07;3.63;;;2.40;;
6358;SDS011;3212;51.460;11.868;2024-02-21T19:50:30;6.05;;;2.45;;
6358;SDS011;3212;51.460;11.868;2024-02-21T19:53:53;3.93;;;2.37;;
6358;SDS011;3212;51.460;11.868;2024-02-21T19:57:15;5.73;;;2.83;;
6358;SDS011;3212;51.460;11.868;2024-02-21T20:00:37;4.45;;;2.47;;
6358;SDS011;3212;51.460;11.868;2024-02-21T20:04:00;5.13;;;2.60;;
6358;SDS011;3212;51.460;11.868;2024-02-21T20:07:22;5.60;;;2.90;;
6358;SDS011;3212;51.460;11.868;2024-02-21T20:10:45;4.23;;;2.30;;
6358;SDS011;3212;51.460;11.868;2024-02-21T20:14:07;5.83;;;2.50;;
6358;SDS011;3212;51.460;11.868;2024-02-21T20:17:29;4.97;;;2.40;;
6358;SDS011;3212;51.460;11.868;2024-02-21T20:20:52;4.80;;;2.40;;
6358;SDS011;3212;51.460;11.868;2024-02-21T20:24:14;8.17;;;2.40;;
6358;SDS011;3212;51.460;11.868;2024-02-21T20:27:37;4.37;;;2.63;;
6358;SDS011;3212;51.460;11.868;2024-02-21T20:31:00;4.70;;;2.40;;
6358;SDS011;3212;51.460;11.868;2024-02-21T20:34:22;5.80;;;2.43;;
6358;SDS011;3212;51.460;11.868;2024-02-21T20:37:45;4.60;;;2.27;;
6358;SDS011;3212;51.460;11.868;2024-02-21T20:41:15;5.72;;;2.00;;